createdAt,value
2017-11-04T00:02:22.419Z,3.10
2017-11-04T00:04:48.801Z,3.30
2017-11-04T00:07:15.195Z,3.50
2017-11-04T00:09:41.661Z,3.70
2017-11-04T00:12:08.792Z,3.30
2017-11-04T00:14:35.931Z,3.20
2017-11-04T00:17:02.379Z,3.20
2017-11-04T00:19:29.793Z,3.00
2017-11-04T00:21:56.177Z,3.00
2017-11-04T00:24:22.589Z,2.90
2017-11-04T00:26:49.730Z,2.90
2017-11-04T00:29:16.940Z,2.90
2017-11-04T00:31:43.331Z,2.90
2017-11-04T00:34:10.471Z,2.80
2017-11-04T00:36:43.783Z,2.90
2017-11-04T00:39:10.167Z,2.90
2017-11-04T00:41:36.555Z,3.00
2017-11-04T00:44:02.954Z,3.20
2017-11-04T00:46:29.341Z,3.30
2017-11-04T00:48:55.718Z,3.40
2017-11-04T00:51:22.123Z,3.50
2017-11-04T00:53:48.515Z,3.70
2017-11-04T00:56:14.895Z,3.90
2017-11-04T00:58:41.463Z,4.00
2017-11-04T01:01:08.605Z,4.00
2017-11-04T01:03:35.768Z,4.20
2017-11-04T01:06:02.984Z,4.10
2017-11-04T01:08:29.566Z,4.10
2017-11-04T01:10:55.955Z,4.00
2017-11-04T01:13:22.359Z,3.90
2017-11-04T01:15:48.737Z,4.00
2017-11-04T01:18:15.903Z,4.10
2017-11-04T01:20:43.032Z,4.20
2017-11-04T01:23:09.424Z,4.20
2017-11-04T01:25:35.837Z,4.20
2017-11-04T01:28:02.232Z,4.20
2017-11-04T01:30:29.431Z,4.10
2017-11-04T01:32:55.817Z,4.10
2017-11-04T01:35:22.957Z,4.00
2017-11-04T01:37:49.357Z,4.00
2017-11-04T01:40:15.777Z,3.80
2017-11-04T01:42:42.163Z,3.80
2017-11-04T01:45:09.321Z,3.50
2017-11-04T01:47:36.513Z,3.30
2017-11-04T01:50:02.945Z,3.30
2017-11-04T01:52:29.346Z,3.30
2017-11-04T01:54:56.458Z,3.10
2017-11-04T01:57:22.920Z,3.10
2017-11-04T01:59:50.074Z,3.40
2017-11-04T02:02:17.212Z,3.60
2017-11-04T02:04:44.376Z,3.60
2017-11-04T02:07:11.590Z,3.70
2017-11-04T02:09:38.746Z,3.60
2017-11-04T02:12:05.151Z,3.60
2017-11-04T02:14:31.559Z,3.70
2017-11-04T02:16:57.943Z,3.80
2017-11-04T02:19:24.352Z,3.80
2017-11-04T02:21:50.774Z,3.90
2017-11-04T02:24:17.148Z,3.90
2017-11-04T02:26:43.616Z,4.00
2017-11-04T02:29:10.056Z,3.80
2017-11-04T02:31:36.565Z,3.50
2017-11-04T02:34:02.970Z,3.40
2017-11-04T02:36:29.395Z,3.40
2017-11-04T02:38:55.804Z,3.50
2017-11-04T02:41:22.204Z,3.60
2017-11-04T02:43:48.599Z,3.60
2017-11-04T02:46:14.990Z,3.60
2017-11-04T02:48:41.408Z,3.60
2017-11-04T02:51:07.812Z,3.50
2017-11-04T02:53:34.944Z,3.60
2017-11-04T02:56:01.350Z,3.60
2017-11-04T02:58:27.727Z,3.50
2017-11-04T03:00:54.832Z,3.30
2017-11-04T03:03:21.221Z,3.30
2017-11-04T03:05:47.654Z,2.90
2017-11-04T03:08:14.784Z,2.50
2017-11-04T03:10:41.937Z,2.60
2017-11-04T03:13:09.092Z,2.80
2017-11-04T03:15:36.209Z,3.10
2017-11-04T03:18:02.639Z,3.10
2017-11-04T03:20:29.072Z,3.10
2017-11-04T03:22:55.508Z,3.00
2017-11-04T03:25:21.916Z,3.10
2017-11-04T03:27:48.319Z,3.20
2017-11-04T03:30:14.734Z,3.60
2017-11-04T03:32:42.006Z,3.60
2017-11-04T03:35:08.407Z,3.60
2017-11-04T03:37:35.444Z,3.80
2017-11-04T03:40:01.875Z,4.00
2017-11-04T03:42:28.255Z,4.00
2017-11-04T03:44:54.647Z,3.80
2017-11-04T03:47:21.047Z,3.70
2017-11-04T03:49:47.451Z,3.80
2017-11-04T03:52:13.856Z,3.70
2017-11-04T03:54:40.992Z,3.50
2017-11-04T03:57:07.370Z,3.50
2017-11-04T03:59:33.800Z,3.80
2017-11-04T04:02:00.184Z,3.80
2017-11-04T04:04:26.590Z,3.90
2017-11-04T04:06:53.239Z,4.20
2017-11-04T04:09:19.644Z,4.20
2017-11-04T04:11:46.025Z,4.20
2017-11-04T04:14:12.436Z,4.10
2017-11-04T04:16:39.027Z,3.80
2017-11-04T04:19:05.403Z,3.70
2017-11-04T04:21:31.798Z,3.60
2017-11-04T04:23:58.213Z,3.60
2017-11-04T04:26:25.468Z,3.70
2017-11-04T04:28:51.867Z,3.60
2017-11-04T04:31:18.243Z,3.80
2017-11-04T04:33:44.611Z,3.80
2017-11-04T04:36:11.006Z,3.80
2017-11-04T04:38:37.482Z,3.70
2017-11-04T04:41:03.902Z,3.70
2017-11-04T04:43:30.323Z,3.80
2017-11-04T04:45:56.740Z,3.80
2017-11-04T04:48:23.161Z,3.80
2017-11-04T04:50:49.751Z,3.70
2017-11-04T04:53:16.197Z,3.70
2017-11-04T04:55:42.624Z,3.80
2017-11-04T04:58:09.814Z,3.90
2017-11-04T05:00:36.215Z,3.80
2017-11-04T05:03:03.384Z,3.90
2017-11-04T05:05:30.514Z,4.10
2017-11-04T05:07:56.925Z,4.10
2017-11-04T05:10:23.320Z,4.10
2017-11-04T05:12:51.244Z,4.00
2017-11-04T05:15:17.631Z,4.10
2017-11-04T05:17:44.038Z,4.10
2017-11-04T05:20:10.437Z,4.20
2017-11-04T05:22:36.811Z,4.30
2017-11-04T05:25:03.199Z,4.40
2017-11-04T05:27:29.620Z,4.40
2017-11-04T05:29:56.007Z,4.40
2017-11-04T05:32:22.399Z,4.40
2017-11-04T05:34:50.279Z,4.50
2017-11-04T05:37:17.437Z,4.60
2017-11-04T05:39:44.570Z,4.60
2017-11-04T05:42:11.699Z,4.70
2017-11-04T05:44:38.104Z,4.70
2017-11-04T05:47:04.506Z,4.70
2017-11-04T05:49:30.885Z,4.80
2017-11-04T05:51:58.122Z,4.90
2017-11-04T05:54:24.525Z,4.90
2017-11-04T05:56:51.647Z,4.90
2017-11-04T05:59:19.569Z,4.80
2017-11-04T06:01:46.028Z,4.80
2017-11-04T06:04:12.453Z,4.70
2017-11-04T06:06:38.876Z,4.60
2017-11-04T06:09:05.276Z,4.70
2017-11-04T06:11:31.760Z,4.70
2017-11-04T06:13:58.151Z,4.70
2017-11-04T06:16:24.526Z,4.80
2017-11-04T06:18:50.915Z,4.80
2017-11-04T06:21:17.313Z,4.90
2017-11-04T06:23:44.456Z,4.90
2017-11-04T06:26:10.841Z,4.90
2017-11-04T06:28:37.250Z,4.90
2017-11-04T06:31:03.649Z,4.80
2017-11-04T06:33:30.040Z,4.80
2017-11-04T06:35:56.446Z,4.90
2017-11-04T06:38:22.852Z,4.90
2017-11-04T06:40:50.095Z,5.00
2017-11-04T06:43:16.499Z,5.00
2017-11-04T06:45:42.961Z,5.10
2017-11-04T06:48:09.392Z,5.10
2017-11-04T06:50:35.784Z,5.20
2017-11-04T06:53:02.308Z,5.30
2017-11-04T06:55:28.699Z,5.40
2017-11-04T06:57:55.083Z,5.40
2017-11-04T07:00:21.526Z,5.20
2017-11-04T07:02:47.912Z,5.30
2017-11-04T07:05:15.077Z,5.40
2017-11-04T07:07:41.470Z,5.40
2017-11-04T07:10:07.865Z,5.50
2017-11-04T07:12:34.318Z,5.60
2017-11-04T07:15:01.460Z,5.50
2017-11-04T07:17:27.857Z,5.50
2017-11-04T07:19:54.227Z,5.70
2017-11-04T07:22:20.599Z,5.60
2017-11-04T07:24:47.763Z,5.60
2017-11-04T07:27:14.198Z,5.60
2017-11-04T07:29:40.612Z,5.70
2017-11-04T07:32:07.780Z,5.70
2017-11-04T07:34:34.183Z,5.60
2017-11-04T07:37:01.376Z,5.90
2017-11-04T07:39:27.829Z,5.90
2017-11-04T07:41:54.226Z,5.90
2017-11-04T07:44:20.617Z,5.80
2017-11-04T07:46:47.018Z,5.80
2017-11-04T07:49:13.440Z,5.80
2017-11-04T07:51:39.856Z,5.90
2017-11-04T07:54:06.401Z,5.90
2017-11-04T07:56:32.893Z,6.00
2017-11-04T07:59:00.754Z,6.10
2017-11-04T08:01:27.159Z,6.10
2017-11-04T08:03:53.563Z,6.10
2017-11-04T08:06:19.989Z,6.30
2017-11-04T08:08:46.370Z,6.30
2017-11-04T08:11:12.777Z,6.30
2017-11-04T08:13:39.209Z,6.20
2017-11-04T08:16:05.615Z,6.20
2017-11-04T08:18:32.771Z,6.40
2017-11-04T08:20:59.903Z,6.40
2017-11-04T08:23:27.034Z,6.40
2017-11-04T08:25:53.409Z,6.40
2017-11-04T08:28:19.819Z,6.40
2017-11-04T08:30:46.934Z,6.50
2017-11-04T08:33:13.306Z,6.40
2017-11-04T08:35:40.464Z,6.70
2017-11-04T08:38:06.861Z,6.70
2017-11-04T08:40:34.726Z,6.80
2017-11-04T08:43:01.889Z,6.90
2017-11-04T08:45:29.061Z,7.00
2017-11-04T08:47:55.467Z,6.90
2017-11-04T08:50:22.650Z,7.00
2017-11-04T08:52:49.083Z,7.00
2017-11-04T08:55:15.507Z,7.00
2017-11-04T08:57:42.888Z,6.30
2017-11-04T09:00:09.351Z,6.20
2017-11-04T09:02:35.749Z,6.00
2017-11-04T09:05:02.267Z,6.00
2017-11-04T09:07:28.653Z,6.00
2017-11-04T09:09:55.085Z,6.10
2017-11-04T09:12:22.960Z,6.50
2017-11-04T09:14:51.667Z,6.40
2017-11-04T09:17:18.800Z,6.00
2017-11-04T09:19:45.180Z,5.90
2017-11-04T09:22:11.575Z,5.70
2017-11-04T09:24:37.990Z,5.80
2017-11-04T09:27:05.847Z,6.10
2017-11-04T09:29:32.248Z,6.10
2017-11-04T09:31:58.624Z,6.00
2017-11-04T09:34:25.020Z,5.90
2017-11-04T09:36:51.427Z,6.00
2017-11-04T09:39:17.827Z,6.10
2017-11-04T09:41:44.969Z,6.70
2017-11-04T09:44:11.379Z,6.60
2017-11-04T09:46:37.823Z,6.50
2017-11-04T09:49:04.260Z,6.50
2017-11-04T09:51:30.718Z,6.20
2017-11-04T09:53:57.843Z,6.00
2017-11-04T09:56:24.295Z,6.00
2017-11-04T09:58:51.423Z,6.50
2017-11-04T10:01:17.837Z,6.50
2017-11-04T10:03:44.218Z,6.20
2017-11-04T10:06:11.483Z,6.00
2017-11-04T10:08:38.868Z,6.00
2017-11-04T10:11:05.267Z,6.00
2017-11-04T10:13:32.424Z,6.80
2017-11-04T10:15:58.909Z,6.70
2017-11-04T10:18:25.297Z,7.00
2017-11-04T10:20:51.690Z,6.80
2017-11-04T10:23:18.083Z,7.00
2017-11-04T10:25:44.464Z,6.60
2017-11-04T10:28:10.846Z,6.60
2017-11-04T10:30:37.243Z,6.80
2017-11-04T10:33:03.680Z,7.00
2017-11-04T10:35:30.111Z,7.40
2017-11-04T10:37:57.291Z,7.00
2017-11-04T10:40:23.731Z,6.90
2017-11-04T10:42:50.092Z,7.20
2017-11-04T10:45:16.500Z,7.50
2017-11-04T10:47:42.890Z,7.60
2017-11-04T10:50:09.324Z,7.90
2017-11-04T10:52:35.727Z,7.80
2017-11-04T10:55:02.112Z,7.50
2017-11-04T10:57:28.518Z,7.80
2017-11-04T10:59:54.918Z,8.00
2017-11-04T11:02:22.800Z,7.90
2017-11-04T11:04:49.934Z,7.90
2017-11-04T11:07:16.324Z,7.80
2017-11-04T11:09:42.801Z,7.50
2017-11-04T11:12:09.204Z,7.40
2017-11-04T11:14:35.574Z,7.70
2017-11-04T11:17:02.714Z,7.90
2017-11-04T11:19:29.092Z,7.90
2017-11-04T11:21:55.573Z,7.70
2017-11-04T11:24:23.459Z,7.70
2017-11-04T11:26:50.643Z,7.90
2017-11-04T11:29:17.799Z,7.90
2017-11-04T11:31:44.928Z,8.00
2017-11-04T11:34:12.063Z,8.20
2017-11-04T11:36:39.186Z,8.50
2017-11-04T11:39:05.589Z,8.50
2017-11-04T11:41:31.987Z,8.50
2017-11-04T11:43:58.397Z,8.60
2017-11-04T11:46:24.780Z,8.40
2017-11-04T11:48:51.148Z,8.70
2017-11-04T11:51:18.347Z,8.10
2017-11-04T11:53:44.737Z,8.10
2017-11-04T11:56:12.585Z,8.50
2017-11-04T11:58:38.998Z,8.50
2017-11-04T12:01:05.384Z,8.50
2017-11-04T12:03:32.502Z,8.80
2017-11-04T12:05:58.906Z,8.70
2017-11-04T12:08:25.284Z,8.50
2017-11-04T12:10:51.689Z,8.80
2017-11-04T12:13:18.150Z,8.90
2017-11-04T12:15:45.294Z,8.70
2017-11-04T12:18:13.187Z,8.80
2017-11-04T12:20:40.342Z,8.50
2017-11-04T12:23:07.500Z,8.70
2017-11-04T12:25:33.904Z,8.70
2017-11-04T12:28:01.794Z,8.90
2017-11-04T12:30:28.233Z,8.90
2017-11-04T12:32:54.649Z,9.00
2017-11-04T12:35:21.805Z,9.00
2017-11-04T12:37:48.940Z,9.30
2017-11-04T12:40:16.088Z,9.20
2017-11-04T12:42:42.471Z,9.20
2017-11-04T12:45:08.898Z,9.10
2017-11-04T12:47:35.342Z,9.20
2017-11-04T12:50:01.737Z,9.20
2017-11-04T12:52:28.157Z,9.00
2017-11-04T12:54:55.307Z,8.90
2017-11-04T12:57:22.434Z,9.00
2017-11-04T12:59:50.296Z,9.00
2017-11-04T13:02:16.703Z,9.00
2017-11-04T13:04:43.080Z,9.40
2017-11-04T13:07:10.233Z,9.70
2017-11-04T13:09:37.383Z,9.90
2017-11-04T13:12:04.499Z,10.00
2017-11-04T13:14:30.880Z,10.00
2017-11-04T13:16:57.988Z,10.20
2017-11-04T13:19:24.484Z,10.20
2017-11-04T13:21:51.820Z,10.00
2017-11-04T13:24:18.216Z,10.10
2017-11-04T13:26:44.609Z,10.10
2017-11-04T13:29:11.025Z,10.20
2017-11-04T13:31:37.483Z,10.20
2017-11-04T13:34:03.859Z,10.00
2017-11-04T13:36:30.260Z,9.90
2017-11-04T13:38:58.329Z,10.10
2017-11-04T13:41:24.716Z,10.00
2017-11-04T13:43:51.859Z,10.30
2017-11-04T13:46:18.258Z,10.30
2017-11-04T13:48:46.131Z,10.20
2017-11-04T13:51:12.527Z,10.20
2017-11-04T13:53:38.899Z,10.30
2017-11-04T13:56:05.284Z,10.50
2017-11-04T13:58:31.724Z,10.30
2017-11-04T14:00:58.104Z,10.30
2017-11-04T14:03:25.236Z,10.50
2017-11-04T14:05:51.612Z,10.50
2017-11-04T14:08:18.000Z,10.50
2017-11-04T14:10:45.132Z,10.30
2017-11-04T14:13:11.526Z,10.30
2017-11-04T14:15:37.901Z,10.50
2017-11-04T14:18:04.346Z,10.50
2017-11-04T14:20:30.864Z,10.40
2017-11-04T14:22:57.275Z,10.50
2017-11-04T14:25:23.665Z,10.60
2017-11-04T14:27:50.779Z,10.50
2017-11-04T14:30:17.183Z,10.50
2017-11-04T14:32:43.563Z,10.70
2017-11-04T14:35:09.969Z,10.60
2017-11-04T14:37:36.365Z,10.60
2017-11-04T14:40:02.796Z,10.60
2017-11-04T14:42:29.507Z,10.50
2017-11-04T14:44:56.630Z,10.40
2017-11-04T14:47:23.015Z,10.40
2017-11-04T14:49:49.404Z,10.50
2017-11-04T14:52:15.807Z,10.50
2017-11-04T14:54:42.212Z,10.40
2017-11-04T14:57:08.600Z,10.20
2017-11-04T14:59:34.995Z,10.30
2017-11-04T15:02:01.359Z,10.30
2017-11-04T15:04:27.763Z,10.30
2017-11-04T15:06:54.145Z,10.20
2017-11-04T15:09:20.531Z,10.10
2017-11-04T15:11:46.934Z,10.00
2017-11-04T15:14:13.347Z,9.80
2017-11-04T15:16:40.474Z,9.70
2017-11-04T15:19:07.596Z,9.70
2017-11-04T15:21:33.964Z,9.70
2017-11-04T15:24:00.464Z,9.70
2017-11-04T15:26:26.885Z,9.60
2017-11-04T15:28:53.286Z,9.60
2017-11-04T15:31:20.468Z,9.70
2017-11-04T15:33:46.873Z,9.60
2017-11-04T15:36:13.306Z,9.70
2017-11-04T15:38:40.445Z,9.60
2017-11-04T15:41:07.587Z,9.50
2017-11-04T15:43:34.704Z,9.50
2017-11-04T15:46:01.085Z,9.50
2017-11-04T15:48:27.486Z,9.50
2017-11-04T15:50:55.356Z,9.30
2017-11-04T15:53:21.744Z,9.40
2017-11-04T15:55:48.127Z,9.30
2017-11-04T15:58:15.292Z,9.20
2017-11-04T16:00:42.421Z,9.10
2017-11-04T16:03:08.815Z,9.10
2017-11-04T16:05:35.191Z,9.10
2017-11-04T16:08:01.586Z,9.00
2017-11-04T16:10:27.985Z,9.00
2017-11-04T16:12:54.385Z,9.00
2017-11-04T16:15:21.513Z,8.90
2017-11-04T16:17:47.893Z,8.80
2017-11-04T16:20:14.267Z,8.80
2017-11-04T16:22:40.672Z,8.70
2017-11-04T16:25:07.081Z,8.70
2017-11-04T16:27:33.571Z,8.60
2017-11-04T16:30:00.030Z,8.50
2017-11-04T16:32:26.399Z,8.60
2017-11-04T16:34:52.805Z,8.50
2017-11-04T16:37:19.951Z,8.40
2017-11-04T16:39:47.065Z,8.40
2017-11-04T16:42:13.423Z,8.40
2017-11-04T16:44:39.924Z,8.40
2017-11-04T16:47:06.307Z,8.40
2017-11-04T16:49:33.446Z,8.50
2017-11-04T16:52:00.572Z,8.50
2017-11-04T16:54:26.986Z,8.50
2017-11-04T16:56:54.887Z,8.00
2017-11-04T16:59:21.283Z,8.00
2017-11-04T17:01:47.651Z,7.80
2017-11-04T17:04:14.037Z,8.00
2017-11-04T17:06:40.430Z,8.30
2017-11-04T17:09:07.565Z,8.20
2017-11-04T17:11:33.966Z,8.20
2017-11-04T17:14:00.360Z,8.40
2017-11-04T17:16:26.729Z,8.40
2017-11-04T17:18:53.126Z,8.50
2017-11-04T17:21:19.574Z,8.40
2017-11-04T17:23:45.959Z,8.30
2017-11-04T17:26:12.344Z,7.90
2017-11-04T17:28:38.748Z,7.80
2017-11-04T17:31:05.147Z,7.70
2017-11-04T17:33:33.034Z,7.50
2017-11-04T17:35:59.442Z,7.50
2017-11-04T17:38:26.085Z,7.50
2017-11-04T17:40:53.255Z,7.70
2017-11-04T17:43:20.421Z,7.90
2017-11-04T17:45:46.820Z,7.80
2017-11-04T17:48:14.678Z,7.60
2017-11-04T17:50:41.081Z,7.60
2017-11-04T17:53:07.478Z,7.50
2017-11-04T17:55:34.608Z,7.20
2017-11-04T17:58:01.767Z,7.20
2017-11-04T18:00:28.899Z,7.40
2017-11-04T18:02:56.794Z,7.40
2017-11-04T18:05:23.191Z,7.40
2017-11-04T18:07:51.053Z,7.80
2017-11-04T18:10:18.187Z,7.80
2017-11-04T18:12:44.598Z,7.80
2017-11-04T18:15:11.016Z,7.60
2017-11-04T18:17:37.404Z,7.50
2017-11-04T18:20:04.525Z,7.50
2017-11-04T18:22:30.939Z,7.50
2017-11-04T18:24:57.507Z,7.40
2017-11-04T18:27:23.927Z,7.20
2017-11-04T18:29:50.323Z,7.20
2017-11-04T18:32:16.696Z,7.10
2017-11-04T18:34:43.095Z,7.00
2017-11-04T18:37:09.467Z,7.00
2017-11-04T18:39:35.912Z,7.00
2017-11-04T18:42:02.362Z,7.00
2017-11-04T18:44:29.519Z,7.10
2017-11-04T18:46:56.643Z,7.20
2017-11-04T18:49:23.020Z,7.20
2017-11-04T18:51:49.422Z,7.30
2017-11-04T18:54:16.592Z,7.00
2017-11-04T18:56:43.013Z,7.00
2017-11-04T18:59:10.182Z,7.10
2017-11-04T19:01:36.611Z,7.10
2017-11-04T19:04:03.019Z,7.10
2017-11-04T19:06:30.148Z,7.00
2017-11-04T19:08:57.346Z,7.10
2017-11-04T19:11:23.797Z,7.00
2017-11-04T19:13:50.212Z,7.10
2017-11-04T19:16:17.382Z,7.00
2017-11-04T19:18:44.587Z,7.00
2017-11-04T19:21:11.740Z,7.00
2017-11-04T19:23:38.896Z,6.80
2017-11-04T19:26:06.079Z,6.50
2017-11-04T19:28:32.491Z,6.50
2017-11-04T19:30:58.895Z,6.20
2017-11-04T19:33:26.037Z,6.20
2017-11-04T19:35:53.199Z,6.30
2017-11-04T19:38:20.355Z,6.30
2017-11-04T19:40:47.491Z,6.30
2017-11-04T19:43:14.664Z,6.10
2017-11-04T19:45:41.192Z,6.20
2017-11-04T19:48:08.339Z,6.20
2017-11-04T19:50:35.505Z,6.20
2017-11-04T19:53:01.930Z,6.20
2017-11-04T19:55:28.324Z,6.10
2017-11-04T19:57:54.707Z,6.10
2017-11-04T20:00:21.144Z,6.10
2017-11-04T20:02:47.544Z,6.10
2017-11-04T20:05:14.712Z,6.20
2017-11-04T20:07:41.842Z,6.30
2017-11-04T20:10:08.243Z,6.30
2017-11-04T20:12:34.690Z,6.50
2017-11-04T20:15:01.151Z,6.30
2017-11-04T20:17:28.317Z,6.10
2017-11-04T20:19:54.722Z,6.10
2017-11-04T20:22:21.890Z,5.90
2017-11-04T20:24:48.288Z,5.80
2017-11-04T20:27:14.678Z,5.90
2017-11-04T20:29:41.098Z,5.90
2017-11-04T20:32:07.516Z,5.90
2017-11-04T20:34:33.968Z,5.90
2017-11-04T20:37:00.556Z,5.90
2017-11-04T20:39:26.984Z,6.00
2017-11-04T20:41:53.396Z,6.00
2017-11-04T20:44:19.862Z,6.00
2017-11-04T20:46:47.020Z,5.90
2017-11-04T20:49:14.169Z,5.80
2017-11-04T20:51:41.307Z,5.80
2017-11-04T20:54:07.710Z,5.80
2017-11-04T20:56:34.113Z,5.80
2017-11-04T20:59:00.513Z,5.80
2017-11-04T21:01:27.665Z,5.80
2017-11-04T21:03:54.117Z,5.80
2017-11-04T21:06:21.300Z,5.70
2017-11-04T21:08:47.705Z,5.70
2017-11-04T21:11:14.108Z,5.80
2017-11-04T21:13:40.507Z,5.70
2017-11-04T21:16:06.905Z,5.70
2017-11-04T21:18:33.320Z,5.70
2017-11-04T21:21:00.474Z,5.70
2017-11-04T21:23:27.590Z,5.70
2017-11-04T21:25:53.968Z,5.70
2017-11-04T21:28:20.353Z,5.90
2017-11-04T21:30:46.741Z,5.80
2017-11-04T21:33:13.141Z,5.80
2017-11-04T21:35:40.284Z,5.90
2017-11-04T21:38:08.160Z,5.80
2017-11-04T21:40:35.288Z,5.90
2017-11-04T21:43:01.663Z,5.90
2017-11-04T21:45:28.072Z,5.90
2017-11-04T21:47:55.229Z,5.70
2017-11-04T21:50:22.379Z,5.70
2017-11-04T21:52:49.522Z,5.90
2017-11-04T21:55:16.664Z,5.90
2017-11-04T21:57:43.822Z,6.00
2017-11-04T22:00:11.017Z,5.90
2017-11-04T22:02:37.402Z,5.90
2017-11-04T22:05:04.648Z,5.80
2017-11-04T22:07:31.035Z,5.80
2017-11-04T22:09:57.511Z,5.80
2017-11-04T22:12:24.659Z,5.60
2017-11-04T22:14:51.771Z,5.50
2017-11-04T22:17:18.148Z,5.50
2017-11-04T22:19:45.270Z,5.50
2017-11-04T22:22:11.668Z,5.40
2017-11-04T22:24:38.067Z,5.50
2017-11-04T22:27:05.208Z,5.50
2017-11-04T22:29:32.388Z,5.40
2017-11-04T22:31:58.839Z,5.40
2017-11-04T22:34:25.249Z,5.40
2017-11-04T22:36:51.648Z,5.40
2017-11-04T22:39:18.819Z,5.20
2017-11-04T22:41:45.947Z,5.10
2017-11-04T22:44:12.321Z,5.10
2017-11-04T22:46:38.724Z,5.00
2017-11-04T22:49:05.880Z,5.10
2017-11-04T22:51:33.027Z,5.10
2017-11-04T22:54:00.172Z,5.10
2017-11-04T22:56:27.311Z,5.30
2017-11-04T22:58:54.625Z,5.40
2017-11-04T23:01:21.036Z,5.30
2017-11-04T23:03:47.437Z,5.30
2017-11-04T23:06:14.559Z,5.30
2017-11-04T23:08:40.936Z,5.30
2017-11-04T23:11:08.103Z,5.30
2017-11-04T23:13:34.949Z,5.30
2017-11-04T23:16:01.333Z,5.30
2017-11-04T23:18:29.229Z,5.20
2017-11-04T23:20:56.365Z,5.20
2017-11-04T23:23:23.510Z,5.20
2017-11-04T23:25:50.648Z,5.20
2017-11-04T23:28:17.012Z,5.20
2017-11-04T23:30:43.394Z,5.30
2017-11-04T23:33:09.797Z,5.50
2017-11-04T23:35:36.193Z,5.70
2017-11-04T23:38:03.399Z,6.10
2017-11-04T23:40:29.795Z,6.00
2017-11-04T23:42:56.185Z,6.00
2017-11-04T23:45:22.579Z,5.80
2017-11-04T23:47:49.469Z,5.50
2017-11-04T23:50:16.603Z,5.00
2017-11-04T23:52:43.011Z,5.00
2017-11-04T23:55:09.420Z,5.00
2017-11-04T23:57:35.823Z,4.90
